Time;durP1;ratioP1;P1;durP2;ratioP2;P2;SDS_P1;SDS_P2;PMS_P1;PMS_P2;Temp;Humidity;BMP_temperature;BMP_pressure;BME280_temperature;BME280_humidity;BME280_pressure;Samples;Min_cycle;Max_cycle;Signal;HPM_P1;HPM_P2
2022/10/24 00:01:13;;;;;;;8.82;5.28;;;;;;;14.02;100.00;100308.66;4968490;28;20842;-62
2022/10/24 00:03:41;;;;;;;13.38;5.07;;;;;;;14.05;100.00;100299.63;4966007;28;20519;-63
2022/10/24 00:06:09;;;;;;;7.53;4.93;;;;;;;14.09;100.00;100315.16;4968641;28;20050;-63
2022/10/24 00:08:37;;;;;;;12.05;5.28;;;;;;;14.08;100.00;100308.19;4966479;28;20047;-63
2022/10/24 00:11:14;;;;;;;12.18;5.43;;;;;;;14.05;100.00;100320.81;4969326;28;20047;-62
2022/10/24 00:13:41;;;;;;;11.88;5.13;;;;;;;14.04;100.00;100317.31;4969162;28;20623;-62
2022/10/24 00:16:09;;;;;;;8.27;5.40;;;;;;;14.09;100.00;100314.31;4987343;28;20063;-63
2022/10/24 00:18:37;;;;;;;8.40;4.78;;;;;;;14.16;100.00;100323.47;4971086;28;20047;-63
2022/10/24 00:21:04;;;;;;;6.88;5.05;;;;;;;14.16;100.00;100320.81;4967302;28;20055;-63
2022/10/24 00:23:31;;;;;;;8.85;5.57;;;;;;;14.14;100.00;100322.75;4963761;28;20058;-62
2022/10/24 00:26:02;;;;;;;9.98;5.95;;;;;;;14.08;100.00;100320.56;4966643;28;20057;-63
2022/10/24 00:28:32;;;;;;;8.70;5.32;;;;;;;14.12;100.00;100329.97;4965620;28;20046;-63
2022/10/24 00:30:59;;;;;;;8.20;5.28;;;;;;;14.13;100.00;100326.34;4970223;28;20504;-63
2022/10/24 00:33:26;;;;;;;9.65;6.25;;;;;;;14.13;100.00;100313.94;4971832;28;20076;-62
2022/10/24 00:35:53;;;;;;;11.65;5.88;;;;;;;14.08;100.00;100320.56;4964011;28;20636;-63
2022/10/24 00:38:20;;;;;;;10.13;5.55;;;;;;;14.10;100.00;100324.81;4965902;28;20133;-63
2022/10/24 00:40:48;;;;;;;9.15;5.53;;;;;;;14.16;100.00;100320.81;4967121;28;20562;-63
2022/10/24 00:43:21;;;;;;;10.70;6.15;;;;;;;14.08;100.00;100313.47;4968369;28;20466;-63
2022/10/24 00:45:53;;;;;;;10.45;5.80;;;;;;;14.07;100.00;100310.97;4967152;28;20055;-62
2022/10/24 00:48:51;;;;;;;7.40;5.57;;;;;;;14.05;100.00;100319.03;4950255;28;20070;-60
2022/10/24 00:51:23;;;;;;;10.00;5.80;;;;;;;14.03;100.00;100318.28;4956421;28;20050;-62
2022/10/24 00:53:53;;;;;;;8.93;5.30;;;;;;;13.96;100.00;100318.88;4981166;28;20065;-63
2022/10/24 00:56:22;;;;;;;12.15;5.82;;;;;;;13.96;100.00;100330.34;4965692;28;20061;-63
2022/10/24 00:58:49;;;;;;;10.55;5.60;;;;;;;13.97;100.00;100329.38;4967644;28;20066;-62
2022/10/24 01:01:17;;;;;;;10.13;5.57;;;;;;;13.99;100.00;100339.81;4975357;28;20082;-62
2022/10/24 01:03:44;;;;;;;8.45;5.18;;;;;;;13.97;100.00;100355.81;4965902;28;20148;-63
2022/10/24 01:06:26;;;;;;;11.05;5.75;;;;;;;13.88;100.00;100351.25;4969529;28;20059;-62
2022/10/24 01:09:05;;;;;;;7.35;5.13;;;;;;;13.83;100.00;100366.63;4957049;28;20064;-62
2022/10/24 01:11:49;;;;;;;8.13;5.28;;;;;;;13.77;100.00;100361.78;4979472;28;20055;-63
2022/10/24 01:14:31;;;;;;;14.10;5.60;;;;;;;13.80;100.00;100361.56;4965363;28;20410;-63
2022/10/24 01:17:15;;;;;;;6.90;5.10;;;;;;;13.71;100.00;100362.28;4962255;28;20055;-62
2022/10/24 01:20:15;;;;;;;8.07;5.40;;;;;;;13.65;100.00;100343.28;4962409;28;20063;-62
2022/10/24 01:23:00;;;;;;;8.75;5.30;;;;;;;13.67;100.00;100345.78;4964486;28;20074;-63
2022/10/24 01:25:45;;;;;;;9.60;5.17;;;;;;;13.70;100.00;100345.56;4964470;28;20085;-63
2022/10/24 01:28:20;;;;;;;7.50;5.28;;;;;;;13.75;100.00;100345.22;4964397;28;20764;-62
2022/10/24 01:31:09;;;;;;;7.50;4.78;;;;;;;13.80;100.00;100330.66;4961121;28;20058;-63
2022/10/24 01:33:45;;;;;;;9.07;5.20;;;;;;;13.84;100.00;100323.34;4968013;28;20141;-63
2022/10/24 01:36:24;;;;;;;6.88;4.53;;;;;;;13.84;100.00;100308.31;4966010;28;20189;-63
2022/10/24 01:38:56;;;;;;;8.02;4.88;;;;;;;13.86;100.00;100301.06;4977629;28;20047;-61
2022/10/24 01:41:26;;;;;;;9.45;5.28;;;;;;;13.87;100.00;100299.28;4964096;28;20137;-63
2022/10/24 01:44:01;;;;;;;10.10;5.55;;;;;;;13.83;100.00;100300.50;4963832;28;20047;-62
2022/10/24 01:46:32;;;;;;;7.15;5.10;;;;;;;13.82;100.00;100306.72;4980680;28;20483;-63
2022/10/24 01:49:08;;;;;;;8.63;4.95;;;;;;;13.80;100.00;100301.56;4964053;28;20064;-62
2022/10/24 01:51:36;;;;;;;10.80;5.40;;;;;;;13.81;100.00;100297.94;4962386;28;20074;-62
2022/10/24 01:54:03;;;;;;;7.68;4.72;;;;;;;13.79;100.00;100285.81;4969008;28;20089;-63
2022/10/24 01:56:30;;;;;;;8.63;5.05;;;;;;;13.81;100.00;100283.88;4962542;28;20061;-63
2022/10/24 01:59:04;;;;;;;9.93;4.88;;;;;;;13.83;100.00;100281.97;4968384;28;20051;-61
2022/10/24 02:01:31;;;;;;;8.88;4.80;;;;;;;13.85;100.00;100264.16;4966321;28;20413;-63
2022/10/24 02:04:03;;;;;;;6.47;4.82;;;;;;;13.83;100.00;100261.63;4964567;28;20145;-63
2022/10/24 02:06:38;;;;;;;8.27;4.50;;;;;;;13.82;100.00;100259.09;4962414;28;20050;-62
2022/10/24 02:09:09;;;;;;;7.82;4.72;;;;;;;13.81;100.00;100250.31;4967940;28;20151;-63
2022/10/24 02:11:37;;;;;;;6.38;4.72;;;;;;;13.80;100.00;100264.50;4964902;28;20437;-62
2022/10/24 02:14:13;;;;;;;6.55;4.95;;;;;;;13.78;100.00;100261.16;4994086;28;20443;-62
2022/10/24 02:16:42;;;;;;;5.97;3.97;;;;;;;13.77;100.00;100261.25;4966233;28;20129;-62
2022/10/24 02:19:09;;;;;;;6.93;4.25;;;;;;;13.75;100.00;100261.41;4971517;28;20061;-62
2022/10/24 02:21:47;;;;;;;6.78;4.50;;;;;;;13.75;100.00;100249.97;4967706;28;20427;-62
2022/10/24 02:24:21;;;;;;;5.97;3.92;;;;;;;13.72;100.00;100258.97;4970927;28;20047;-62
2022/10/24 02:26:53;;;;;;;7.32;4.97;;;;;;;13.67;100.00;100256.69;4966714;28;20526;-62
2022/10/24 02:29:32;;;;;;;8.77;4.97;;;;;;;13.66;100.00;100262.94;4959606;28;20568;-62
2022/10/24 02:32:00;;;;;;;7.72;5.03;;;;;;;13.65;100.00;100252.50;4981614;28;20061;-62
2022/10/24 02:34:29;;;;;;;8.77;4.47;;;;;;;13.68;100.00;100261.00;4957588;28;20047;-63
2022/10/24 02:36:57;;;;;;;5.43;4.22;;;;;;;13.69;100.00;100256.59;4966245;28;20061;-62
2022/10/24 02:39:25;;;;;;;6.68;4.05;;;;;;;13.66;100.00;100255.00;4985261;28;20051;-63
2022/10/24 02:41:53;;;;;;;6.78;4.50;;;;;;;13.63;100.00;100255.25;4956446;23;20587;-61
2022/10/24 02:44:22;;;;;;;7.95;4.13;;;;;;;13.60;100.00;100236.97;4935020;28;20043;-62
2022/10/24 02:46:51;;;;;;;6.93;4.95;;;;;;;13.61;100.00;100241.31;4934587;29;20142;-63
2022/10/24 02:49:18;;;;;;;9.07;5.03;;;;;;;13.59;100.00;100231.78;4955919;28;20051;-63
2022/10/24 02:51:45;;;;;;;7.38;4.85;;;;;;;13.59;100.00;100235.28;4951046;28;20149;-63
2022/10/24 02:54:12;;;;;;;8.77;4.50;;;;;;;13.59;100.00;100239.72;4943264;28;20058;-62
2022/10/24 02:56:43;;;;;;;5.35;4.47;;;;;;;13.58;100.00;100233.59;4952951;28;20135;-63
2022/10/24 02:59:11;;;;;;;6.63;4.15;;;;;;;13.55;100.00;100239.13;4946393;28;20356;-62
2022/10/24 03:01:38;;;;;;;10.55;4.68;;;;;;;13.52;100.00;100247.31;4960482;28;20061;-63
2022/10/24 03:04:05;;;;;;;7.80;4.70;;;;;;;13.51;100.00;100245.63;4953903;28;20082;-62
2022/10/24 03:06:32;;;;;;;8.95;4.90;;;;;;;13.51;100.00;100228.91;4954153;28;20057;-61
2022/10/24 03:09:00;;;;;;;9.43;4.82;;;;;;;13.52;100.00;100242.00;4950780;28;20059;-64
2022/10/24 03:11:27;;;;;;;7.35;4.90;;;;;;;13.48;100.00;100234.44;4951843;28;20051;-62
2022/10/24 03:13:54;;;;;;;10.63;4.55;;;;;;;13.45;100.00;100235.50;4951107;28;20055;-63
2022/10/24 03:16:21;;;;;;;6.15;4.82;;;;;;;13.41;100.00;100228.75;4950157;28;20131;-62
2022/10/24 03:18:48;;;;;;;9.35;4.45;;;;;;;13.39;100.00;100228.06;4950294;28;20065;-62
2022/10/24 03:21:15;;;;;;;10.05;4.75;;;;;;;13.30;100.00;100242.81;4966247;28;20532;-63
2022/10/24 03:23:42;;;;;;;6.00;4.32;;;;;;;13.31;100.00;100247.13;4949638;28;20434;-61
2022/10/24 03:26:09;;;;;;;6.32;4.32;;;;;;;13.32;100.00;100247.97;4959970;28;20155;-63
2022/10/24 03:28:37;;;;;;;8.50;4.35;;;;;;;13.32;100.00;100242.69;4953775;28;20541;-62
2022/10/24 03:31:05;;;;;;;6.40;4.45;;;;;;;13.33;100.00;100241.75;4945475;28;20059;-62
2022/10/24 03:33:32;;;;;;;8.15;3.90;;;;;;;13.32;100.00;100247.97;4950040;28;20158;-64
2022/10/24 03:36:00;;;;;;;6.32;3.75;;;;;;;13.33;100.00;100247.88;4955515;28;20138;-62
2022/10/24 03:38:27;;;;;;;5.15;3.88;;;;;;;13.35;100.00;100243.31;4934826;28;20553;-63
2022/10/24 03:40:54;;;;;;;6.50;3.97;;;;;;;13.37;100.00;100241.41;4953151;28;20055;-60
2022/10/24 03:43:21;;;;;;;9.63;3.85;;;;;;;13.37;100.00;100237.88;4952814;28;20101;-64
2022/10/24 03:45:48;;;;;;;6.75;3.83;;;;;;;13.35;100.00;100243.31;4959451;28;20142;-63
2022/10/24 03:48:15;;;;;;;6.25;4.18;;;;;;;13.33;100.00;100234.66;4953331;28;20529;-62
2022/10/24 03:50:42;;;;;;;6.78;4.35;;;;;;;13.25;100.00;100241.50;4934962;28;20146;-61
2022/10/24 03:53:09;;;;;;;6.80;4.10;;;;;;;13.21;100.00;100232.91;4952764;28;20100;-63
2022/10/24 03:55:37;;;;;;;11.27;4.85;;;;;;;13.22;100.00;100225.81;4956841;28;20130;-62
2022/10/24 03:58:04;;;;;;;8.52;4.22;;;;;;;13.17;100.00;100236.75;4950213;28;20479;-63
2022/10/24 04:00:37;;;;;;;8.07;5.00;;;;;;;13.16;100.00;100235.91;4952483;28;20047;-63
2022/10/24 04:03:08;;;;;;;7.15;4.45;;;;;;;13.17;100.00;100242.88;4934474;28;20061;-63
2022/10/24 04:05:36;;;;;;;14.07;5.57;;;;;;;13.15;100.00;100244.81;4950399;28;20138;-63
2022/10/24 04:08:08;;;;;;;9.98;4.88;;;;;;;13.14;100.00;100239.63;4955501;28;20134;-61
2022/10/24 04:10:35;;;;;;;7.18;4.72;;;;;;;13.02;100.00;100246.69;4967845;28;20505;-63
2022/10/24 04:13:02;;;;;;;6.63;4.10;;;;;;;13.01;100.00;100241.50;4951386;28;20047;-64
2022/10/24 04:15:30;;;;;;;6.72;4.22;;;;;;;13.01;100.00;100242.34;4952661;28;20047;-66
2022/10/24 04:17:57;;;;;;;6.75;4.57;;;;;;;13.04;100.00;100236.81;4950512;28;20051;-63
2022/10/24 04:20:24;;;;;;;11.38;3.88;;;;;;;13.07;100.00;100236.59;4956544;28;20177;-64
2022/10/24 04:22:51;;;;;;;6.93;3.95;;;;;;;13.03;100.00;100231.66;4954245;28;20057;-64
2022/10/24 04:25:18;;;;;;;7.57;3.60;;;;;;;13.02;100.00;100228.19;4953283;28;20507;-64
2022/10/24 04:27:46;;;;;;;6.50;4.13;;;;;;;13.04;100.00;100230.69;4950818;28;20416;-65
2022/10/24 04:30:13;;;;;;;6.75;3.53;;;;;;;13.06;100.00;100234.94;4948541;28;20138;-62
2022/10/24 04:32:43;;;;;;;6.75;3.20;;;;;;;13.09;100.00;100232.03;4952321;28;20142;-63
2022/10/24 04:35:11;;;;;;;9.40;3.70;;;;;;;13.10;100.00;100232.88;4938811;28;20609;-62
2022/10/24 04:37:38;;;;;;;6.72;3.63;;;;;;;13.09;100.00;100245.25;4966750;28;20051;-63
2022/10/24 04:40:06;;;;;;;7.15;3.53;;;;;;;13.04;100.00;100236.81;4954604;28;20075;-63
2022/10/24 04:42:33;;;;;;;6.90;4.00;;;;;;;13.04;100.00;100238.63;4947154;28;20063;-64
2022/10/24 04:45:00;;;;;;;7.25;4.05;;;;;;;13.06;100.00;100247.31;4951607;28;20134;-63
2022/10/24 04:47:27;;;;;;;6.97;3.60;;;;;;;13.06;100.00;100242.84;4951496;28;20087;-63
2022/10/24 04:49:54;;;;;;;6.82;3.30;;;;;;;13.07;100.00;100241.06;4953045;28;20059;-63
2022/10/24 04:52:22;;;;;;;5.80;3.95;;;;;;;13.06;100.00;100239.38;4951959;28;20134;-63
2022/10/24 04:54:49;;;;;;;6.63;3.70;;;;;;;13.08;100.00;100235.66;4947239;28;20078;-64
2022/10/24 04:57:16;;;;;;;9.45;3.80;;;;;;;13.07;100.00;100233.97;4955555;28;20066;-62
2022/10/24 04:59:43;;;;;;;7.18;3.35;;;;;;;13.07;100.00;100247.19;4952064;28;20062;-62
2022/10/24 05:02:10;;;;;;;7.82;3.47;;;;;;;13.07;100.00;100241.88;4955507;28;20483;-63
2022/10/24 05:04:37;;;;;;;7.88;4.05;;;;;;;13.08;100.00;100258.59;4949183;28;20047;-61
2022/10/24 05:07:04;;;;;;;5.40;3.67;;;;;;;13.06;100.00;100263.16;4949917;28;20073;-62
2022/10/24 05:09:32;;;;;;;6.40;3.97;;;;;;;13.00;100.00;100267.09;4948962;28;20443;-62
2022/10/24 05:11:59;;;;;;;8.98;3.65;;;;;;;12.98;100.00;100273.47;4950505;28;20118;-63
2022/10/24 05:14:26;;;;;;;6.53;3.60;;;;;;;12.99;100.00;100281.25;4946986;28;20243;-65
2022/10/24 05:16:53;;;;;;;6.30;3.88;;;;;;;13.02;100.00;100272.28;4933216;28;20067;-61
2022/10/24 05:19:20;;;;;;;9.70;4.07;;;;;;;13.01;100.00;100267.91;4952172;28;20047;-63
2022/10/24 05:21:48;;;;;;;8.15;3.90;;;;;;;12.99;100.00;100264.56;4950954;28;20055;-64
2022/10/24 05:24:15;;;;;;;7.25;3.80;;;;;;;12.92;100.00;100266.81;4952882;28;20527;-62
2022/10/24 05:26:42;;;;;;;5.45;3.22;;;;;;;12.92;100.00;100269.44;4951643;28;20059;-63
2022/10/24 05:29:09;;;;;;;7.85;3.83;;;;;;;12.92;100.00;100269.44;4946907;28;20074;-61
2022/10/24 05:31:36;;;;;;;9.27;4.80;;;;;;;12.92;100.00;100275.59;4951069;28;20047;-63
2022/10/24 05:34:03;;;;;;;6.07;4.13;;;;;;;12.89;100.00;100274.97;4948475;28;20051;-62
2022/10/24 05:36:31;;;;;;;7.32;3.80;;;;;;;12.92;100.00;100270.31;4950120;28;20118;-64
2022/10/24 05:38:58;;;;;;;8.95;4.18;;;;;;;12.98;100.00;100266.38;4951823;28;20051;-62
2022/10/24 05:41:25;;;;;;;7.10;4.15;;;;;;;13.00;100.00;100260.97;4950611;28;20419;-63
2022/10/24 05:43:52;;;;;;;5.40;3.33;;;;;;;13.02;100.00;100256.41;4951413;28;20051;-61
2022/10/24 05:46:19;;;;;;;6.47;3.78;;;;;;;13.03;100.00;100258.94;4951334;28;20053;-62
2022/10/24 05:48:46;;;;;;;8.60;3.60;;;;;;;13.05;100.00;100253.53;4948748;28;20107;-63
2022/10/24 05:51:13;;;;;;;12.13;3.92;;;;;;;13.06;100.00;100250.78;4950322;28;20069;-63
2022/10/24 05:53:40;;;;;;;7.05;4.03;;;;;;;13.05;100.00;100243.78;4942639;28;20065;-61
2022/10/24 05:56:08;;;;;;;6.20;4.38;;;;;;;13.05;100.00;100243.78;4946860;28;20053;-63
2022/10/24 05:58:35;;;;;;;9.68;3.60;;;;;;;13.06;100.00;100245.50;4947011;28;20055;-63
2022/10/24 06:01:02;;;;;;;16.55;5.22;;;;;;;13.06;100.00;100255.22;4946182;28;20059;-63
2022/10/24 06:03:29;;;;;;;10.25;4.32;;;;;;;13.01;100.00;100257.34;4942529;28;20074;-63
2022/10/24 06:05:57;;;;;;;6.55;3.72;;;;;;;13.02;100.00;100265.19;4945517;28;20070;-63
2022/10/24 06:08:24;;;;;;;9.55;4.75;;;;;;;13.04;100.00;100254.50;4947020;28;20055;-63
2022/10/24 06:10:52;;;;;;;14.55;3.63;;;;;;;13.06;100.00;100249.94;4942275;28;20408;-61
2022/10/24 06:13:19;;;;;;;10.68;4.53;;;;;;;13.10;100.00;100243.44;4945865;28;20114;-61
2022/10/24 06:15:47;;;;;;;9.85;4.05;;;;;;;13.12;100.00;100228.34;4940618;28;20059;-63
2022/10/24 06:18:15;;;;;;;8.43;3.85;;;;;;;13.12;100.00;100233.63;4944660;28;20115;-61
2022/10/24 06:20:42;;;;;;;13.80;4.18;;;;;;;13.15;100.00;100223.66;4943881;28;20193;-62
2022/10/24 06:23:10;;;;;;;5.30;3.00;;;;;;;13.17;100.00;100212.97;4945363;28;20054;-63
2022/10/24 06:25:40;;;;;;;6.90;4.05;;;;;;;13.17;100.00;100232.31;4948241;28;20589;-62
2022/10/24 06:28:07;;;;;;;8.63;3.70;;;;;;;13.20;100.00;100233.03;4948870;28;20066;-63
2022/10/24 06:30:41;;;;;;;7.68;3.88;;;;;;;13.21;100.00;100229.44;4943913;28;20135;-61
2022/10/24 06:33:08;;;;;;;14.80;4.75;;;;;;;13.18;100.00;100238.44;4946561;28;20139;-62
2022/10/24 06:35:36;;;;;;;11.00;4.30;;;;;;;13.18;100.00;100247.19;4951878;28;20141;-62
2022/10/24 06:38:03;;;;;;;6.50;3.58;;;;;;;13.18;100.00;100244.56;4948344;28;20122;-61
2022/10/24 06:40:30;;;;;;;11.43;3.90;;;;;;;13.18;100.00;100239.25;4947733;28;20101;-62
2022/10/24 06:42:57;;;;;;;12.93;4.30;;;;;;;13.22;100.00;100245.19;4945441;28;20074;-61
2022/10/24 06:45:25;;;;;;;11.93;3.72;;;;;;;13.22;100.00;100241.69;4946176;28;20051;-59
2022/10/24 06:47:52;;;;;;;9.80;4.25;;;;;;;13.23;100.00;100244.22;4947180;28;20482;-62
2022/10/24 06:50:20;;;;;;;12.38;4.32;;;;;;;13.19;100.00;100242.75;4950796;28;20517;-60
2022/10/24 06:52:47;;;;;;;10.85;4.10;;;;;;;13.12;100.00;100244.19;4950888;28;20070;-63
2022/10/24 06:55:15;;;;;;;12.63;4.90;;;;;;;13.19;100.00;100248.03;4945387;28;20059;-64
2022/10/24 06:57:42;;;;;;;11.93;4.45;;;;;;;13.18;100.00;100251.63;4945660;28;20051;-62
2022/10/24 07:00:10;;;;;;;7.45;3.67;;;;;;;13.21;100.00;100263.78;4949372;28;20166;-63
2022/10/24 07:02:37;;;;;;;10.32;3.90;;;;;;;13.25;100.00;100260.00;4948886;28;20126;-63
2022/10/24 07:05:08;;;;;;;7.32;3.80;;;;;;;13.26;100.00;100266.97;4947749;28;20072;-62
2022/10/24 07:07:35;;;;;;;9.98;4.78;;;;;;;13.22;100.00;100276.91;4947375;28;20046;-63
2022/10/24 07:10:02;;;;;;;10.90;5.13;;;;;;;13.25;100.00;100281.16;4942107;28;20075;-62
2022/10/24 07:12:29;;;;;;;5.90;4.35;;;;;;;13.25;100.00;100297.00;4952942;28;20057;-63
2022/10/24 07:14:56;;;;;;;11.50;4.20;;;;;;;13.21;100.00;100298.16;4945058;28;20044;-62
2022/10/24 07:17:23;;;;;;;9.45;4.60;;;;;;;13.17;100.00;100303.66;4947610;28;20050;-64
2022/10/24 07:19:52;;;;;;;11.73;4.85;;;;;;;13.18;100.00;100289.47;4942970;28;20158;-63
2022/10/24 07:22:19;;;;;;;9.27;4.82;;;;;;;13.24;100.00;100287.38;4946438;28;20059;-63
2022/10/24 07:24:52;;;;;;;12.63;4.40;;;;;;;13.26;100.00;100285.47;4950872;28;20055;-62
2022/10/24 07:27:20;;;;;;;10.82;4.60;;;;;;;13.29;100.00;100280.78;4940495;28;20063;-59
2022/10/24 07:29:47;;;;;;;11.30;4.75;;;;;;;13.33;100.00;100286.69;4944130;28;20078;-62
2022/10/24 07:32:14;;;;;;;8.20;4.18;;;;;;;13.36;100.00;100287.28;4945441;28;20053;-63
2022/10/24 07:34:41;;;;;;;10.52;4.47;;;;;;;13.39;100.00;100280.94;4944149;28;20058;-62
2022/10/24 07:37:08;;;;;;;10.50;4.50;;;;;;;13.43;100.00;100274.47;4941529;28;20409;-62
2022/10/24 07:39:36;;;;;;;13.55;5.20;;;;;;;13.45;100.00;100283.09;4946455;28;20338;-63
2022/10/24 07:42:03;;;;;;;11.45;4.18;;;;;;;13.44;100.00;100284.06;4944093;28;20142;-63
2022/10/24 07:44:30;;;;;;;12.30;4.25;;;;;;;13.47;100.00;100285.66;4947074;28;20114;-63
2022/10/24 07:46:57;;;;;;;7.88;4.47;;;;;;;13.51;100.00;100287.94;4948400;28;20052;-62
2022/10/24 07:49:24;;;;;;;15.82;4.40;;;;;;;13.54;100.00;100295.63;4948005;28;20062;-63
2022/10/24 07:51:57;;;;;;;10.80;3.97;;;;;;;13.61;100.00;100296.00;4951087;28;20050;-64
2022/10/24 07:54:25;;;;;;;12.18;3.70;;;;;;;13.68;100.00;100292.75;4957257;28;20063;-63
2022/10/24 07:56:52;;;;;;;12.35;4.80;;;;;;;13.77;100.00;100285.06;4945322;28;20383;-63
2022/10/24 07:59:20;;;;;;;7.38;4.20;;;;;;;13.84;100.00;100289.78;4941564;28;20063;-61
2022/10/24 08:02:09;;;;;;;9.68;3.70;;;;;;;13.89;100.00;100297.34;4947353;28;20500;-64
2022/10/24 08:04:37;;;;;;;11.68;4.18;;;;;;;13.93;100.00;100297.00;4942387;28;20051;-63
2022/10/24 08:07:10;;;;;;;13.88;4.25;;;;;;;14.00;100.00;100288.56;4952173;28;20051;-63
2022/10/24 08:09:41;;;;;;;11.02;4.05;;;;;;;14.04;100.00;100282.91;4951393;28;20069;-64
2022/10/24 08:12:09;;;;;;;11.65;3.53;;;;;;;14.06;100.00;100285.47;4951068;28;20054;-64
2022/10/24 08:14:37;;;;;;;8.82;4.75;;;;;;;14.09;100.00;100283.38;4952381;28;20061;-62
2022/10/24 08:17:04;;;;;;;18.00;4.72;;;;;;;14.15;100.00;100282.91;4946157;28;20133;-61
2022/10/24 08:19:32;;;;;;;9.88;4.43;;;;;;;14.22;100.00;100285.06;4949202;28;20069;-63
2022/10/24 08:22:00;;;;;;;16.65;5.38;;;;;;;14.28;100.00;100292.53;4952676;28;20046;-63
2022/10/24 08:24:27;;;;;;;10.63;3.95;;;;;;;14.30;100.00;100278.19;4951412;28;20155;-64
2022/10/24 08:26:57;;;;;;;14.10;4.38;;;;;;;14.36;100.00;100290.97;4948324;28;20081;-64
2022/10/24 08:29:24;;;;;;;10.68;4.05;;;;;;;14.42;100.00;100294.94;4945656;28;20058;-62
2022/10/24 08:31:54;;;;;;;11.93;4.47;;;;;;;14.49;100.00;100288.19;4944507;28;20563;-63
2022/10/24 08:34:22;;;;;;;18.73;4.75;;;;;;;14.56;100.00;100285.91;4948755;28;20059;-63
2022/10/24 08:36:49;;;;;;;10.25;4.38;;;;;;;14.72;100.00;100285.47;4949739;28;20163;-63
2022/10/24 08:39:17;;;;;;;14.82;4.95;;;;;;;14.80;100.00;100283.88;4944846;28;20047;-63
2022/10/24 08:41:56;;;;;;;9.73;3.83;;;;;;;14.89;100.00;100277.81;4962027;28;20606;-64
2022/10/24 08:44:30;;;;;;;11.77;4.20;;;;;;;14.98;100.00;100270.09;4984765;22;20141;-63
2022/10/24 08:47:08;;;;;;;14.10;3.92;;;;;;;15.04;100.00;100274.88;4982680;28;20054;-63
2022/10/24 08:49:51;;;;;;;15.18;3.78;;;;;;;15.13;100.00;100282.94;4985227;28;20087;-63
2022/10/24 08:52:48;;;;;;;13.02;3.55;;;;;;;15.21;100.00;100279.63;4979908;28;20058;-63
2022/10/24 08:55:19;;;;;;;13.32;3.78;;;;;;;15.29;100.00;100278.97;4984460;28;20058;-63
2022/10/24 08:58:04;;;;;;;13.10;3.40;;;;;;;15.36;100.00;100280.16;4983515;28;20481;-63
2022/10/24 09:00:40;;;;;;;10.77;3.72;;;;;;;15.40;100.00;100271.81;4983804;28;20060;-63
2022/10/24 09:03:19;;;;;;;10.52;3.90;;;;;;;15.44;100.00;100270.59;4981230;28;20087;-64
2022/10/24 09:06:07;;;;;;;12.68;4.65;;;;;;;15.52;100.00;100269.06;4985525;28;20047;-63
2022/10/24 09:08:42;;;;;;;13.95;3.50;;;;;;;15.58;100.00;100264.09;4986143;28;20046;-63
2022/10/24 09:11:13;;;;;;;;;;;;;;;15.67;100.00;100260.69;4998664;28;20547;-64
2022/10/24 09:13:40;;;;;;;16.48;3.90;;;;;;;15.69;100.00;100260.53;4982827;28;19925;-64
2022/10/24 09:16:21;;;;;;;8.45;3.33;;;;;;;15.79;100.00;100271.19;4983219;28;20056;-63
2022/10/24 09:18:52;;;;;;;9.90;3.50;;;;;;;15.84;100.00;100267.16;4978541;28;20350;-63
2022/10/24 09:21:20;;;;;;;7.45;3.42;;;;;;;15.87;100.00;100272.22;4971644;28;20064;-64
2022/10/24 09:23:48;;;;;;;8.63;3.55;;;;;;;15.89;100.00;100266.78;4981560;28;20434;-63
2022/10/24 09:26:23;;;;;;;8.25;3.47;;;;;;;15.91;100.00;100270.16;4977777;28;20048;-64
2022/10/24 09:28:50;;;;;;;11.43;3.63;;;;;;;15.96;100.00;100275.91;4983624;28;20137;-62
2022/10/24 09:31:20;;;;;;;9.35;3.28;;;;;;;16.05;100.00;100276.91;4984979;28;20054;-64
2022/10/24 09:33:48;;;;;;;8.48;3.08;;;;;;;16.06;100.00;100278.59;4989056;28;20051;-61
2022/10/24 09:36:17;;;;;;;11.43;3.72;;;;;;;16.08;100.00;100277.50;4987773;28;20450;-66
2022/10/24 09:38:45;;;;;;;12.70;3.40;;;;;;;16.14;100.00;100271.63;4986394;28;20058;-63
2022/10/24 09:41:12;;;;;;;8.15;3.17;;;;;;;16.19;100.00;100273.88;4984706;28;20058;-63
2022/10/24 09:43:42;;;;;;;17.40;3.05;;;;;;;16.30;100.00;100271.13;4983230;28;20081;-62
2022/10/24 09:46:12;;;;;;;24.25;4.82;;;;;;;16.32;100.00;100269.16;4987745;28;20051;-63
2022/10/24 09:49:01;;;;;;;13.07;2.80;;;;;;;16.39;100.00;100267.66;4987008;28;20058;-63
2022/10/24 09:51:35;;;;;;;12.10;3.33;;;;;;;16.43;100.00;100268.19;4977631;28;20385;-62
2022/10/24 09:54:17;;;;;;;17.02;4.05;;;;;;;16.46;100.00;100265.28;4985015;28;20052;-62
2022/10/24 09:56:49;;;;;;;14.60;3.80;;;;;;;16.51;100.00;100278.16;4983178;28;20178;-63
2022/10/24 09:59:59;;;;;;;12.35;2.88;;;;;;;16.55;100.00;100274.25;4976209;28;20062;-60
2022/10/24 10:02:27;;;;;;;11.13;3.00;;;;;;;16.57;100.00;100281.13;4972675;28;20159;-62
2022/10/24 10:05:03;;;;;;;13.90;3.30;;;;;;;16.62;100.00;100278.88;4982905;28;20060;-63
2022/10/24 10:07:32;;;;;;;18.80;3.67;;;;;;;16.67;100.00;100263.38;4985045;28;20478;-63
2022/10/24 10:10:18;;;;;;;12.07;3.90;;;;;;;16.75;100.00;100277.78;4985984;28;20058;-63
2022/10/24 10:12:59;;;;;;;17.83;3.05;;;;;;;16.78;99.01;100269.56;4986287;28;20653;-63
2022/10/24 10:15:44;;;;;;;11.77;3.10;;;;;;;16.89;98.76;100274.75;4982906;28;20052;-63
2022/10/24 10:18:23;;;;;;;18.63;3.10;;;;;;;16.91;99.31;100268.28;4987892;28;20057;-63
2022/10/24 10:21:10;;;;;;;13.88;2.90;;;;;;;16.90;98.21;100258.66;4976759;28;20133;-63
2022/10/24 10:23:47;;;;;;;18.52;3.22;;;;;;;16.91;98.48;100267.47;4986468;28;20074;-63
2022/10/24 10:26:27;;;;;;;13.10;3.03;;;;;;;16.94;97.14;100261.88;4982629;28;20426;-63
2022/10/24 10:29:03;;;;;;;12.85;3.05;;;;;;;16.95;97.25;100269.69;4982280;28;21141;-62
2022/10/24 10:31:42;;;;;;;10.95;2.88;;;;;;;17.02;96.92;100267.34;4976443;28;20137;-62
2022/10/24 10:34:34;;;;;;;11.13;3.33;;;;;;;17.10;96.98;100262.13;4986492;28;20050;-63
2022/10/24 10:37:07;;;;;;;8.40;2.80;;;;;;;17.15;95.92;100256.38;4982515;28;20080;-62
2022/10/24 10:40:12;;;;;;;14.50;3.92;;;;;;;17.11;96.16;100262.97;4981176;28;20692;-62
2022/10/24 10:42:58;;;;;;;9.27;2.65;;;;;;;17.14;96.08;100260.03;4961364;28;20137;-63
2022/10/24 10:45:38;;;;;;;12.27;2.97;;;;;;;17.16;95.70;100252.75;4984996;28;20049;-62
2022/10/24 10:48:24;;;;;;;9.57;2.83;;;;;;;17.20;95.57;100262.13;4982204;28;20054;-64
2022/10/24 10:51:02;;;;;;;10.10;3.05;;;;;;;17.21;95.09;100258.50;4983791;28;20137;-62
2022/10/24 10:53:54;;;;;;;16.48;3.00;;;;;;;17.21;94.29;100256.66;4973867;28;20097;-62
2022/10/24 10:56:31;;;;;;;8.98;2.65;;;;;;;17.26;94.16;100266.06;4980377;28;20690;-63
2022/10/24 10:59:36;;;;;;;12.68;3.05;;;;;;;17.25;94.27;100256.41;4972049;28;20054;-62
2022/10/24 11:02:37;;;;;;;11.10;2.85;;;;;;;17.31;94.63;100267.28;4984347;28;20072;-64
2022/10/24 11:05:13;;;;;;;11.75;3.03;;;;;;;17.30;94.83;100262.13;4982366;28;20459;-63
2022/10/24 11:07:49;;;;;;;7.85;3.22;;;;;;;17.30;93.77;100254.97;4969922;28;20049;-64
2022/10/24 11:10:21;;;;;;;10.60;2.95;;;;;;;17.35;93.94;100258.06;4990909;28;20058;-61
2022/10/24 11:12:48;;;;;;;8.18;3.13;;;;;;;17.38;93.14;100256.91;4963992;28;20133;-62
2022/10/24 11:15:28;;;;;;;14.05;2.65;;;;;;;17.38;93.24;100257.78;4974759;28;20059;-63
2022/10/24 11:18:05;;;;;;;10.80;2.88;;;;;;;17.37;93.49;100253.41;4986021;28;20180;-62
2022/10/24 11:20:43;;;;;;;11.93;3.80;;;;;;;17.38;92.78;100247.13;4972008;28;20058;-62
2022/10/24 11:23:22;;;;;;;11.88;2.80;;;;;;;17.44;93.25;100243.88;4975400;28;20058;-63
2022/10/24 11:26:06;;;;;;;10.35;2.70;;;;;;;17.48;92.28;100259.56;4977361;28;20054;-63
2022/10/24 11:28:45;;;;;;;11.52;2.78;;;;;;;17.46;92.52;100249.06;4978386;28;20153;-63
2022/10/24 11:31:14;;;;;;;12.20;2.88;;;;;;;17.52;92.68;100255.66;4984018;28;20515;-63
2022/10/24 11:33:44;;;;;;;12.98;2.50;;;;;;;17.56;91.84;100257.88;4991924;28;20054;-63